Time;durP1;ratioP1;P1;durP2;ratioP2;P2;SDS_P1;SDS_P2;PMS_P1;PMS_P2;Temp;Humidity;BMP_temperature;BMP_pressure;BME280_temperature;BME280_humidity;BME280_pressure;Samples;Min_cycle;Max_cycle;Signal;HPM_P1;HPM_P2
2022/05/03 00:00:15;;;;;;;7.33;5.30;;;;;;;;;;5056680;28;20178;-65
2022/05/03 00:02:50;;;;;;;6.50;5.07;;;;;;;;;;5038490;28;20579;-66
2022/05/03 00:05:24;;;;;;;8.77;5.97;;;;;;;;;;5056629;28;20257;-65
2022/05/03 00:08:03;;;;;;;7.87;5.47;;;;;;;;;;5057293;28;20645;-65
2022/05/03 00:10:29;;;;;;;7.10;5.93;;;;;;;;;;5056646;28;20186;-65
2022/05/03 00:13:03;;;;;;;6.93;4.93;;;;;;;;;;5038728;28;20578;-65
2022/05/03 00:15:29;;;;;;;5.77;4.70;;;;;;;;;;5056624;28;20206;-65
2022/05/03 00:17:56;;;;;;;6.97;5.03;;;;;;;;;;5056377;28;20646;-65
2022/05/03 00:20:22;;;;;;;5.33;4.83;;;;;;;;;;5056543;28;20181;-65
2022/05/03 00:22:48;;;;;;;7.80;4.70;;;;;;;;;;5056369;28;20198;-65
2022/05/03 00:25:14;;;;;;;7.73;5.30;;;;;;;;;;5056318;28;20221;-65
2022/05/03 00:27:40;;;;;;;5.10;4.60;;;;;;;;;;5038438;28;20225;-66
2022/05/03 00:30:06;;;;;;;6.93;4.77;;;;;;;;;;5038329;28;20229;-66
2022/05/03 00:32:34;;;;;;;4.83;4.20;;;;;;;;;;5037992;28;20248;-67
2022/05/03 00:35:00;;;;;;;6.00;5.00;;;;;;;;;;5056391;28;20552;-67
2022/05/03 00:37:27;;;;;;;6.13;4.87;;;;;;;;;;5056421;28;20526;-66
2022/05/03 00:39:52;;;;;;;6.77;4.93;;;;;;;;;;5056490;28;20186;-66
2022/05/03 00:42:20;;;;;;;6.43;5.10;;;;;;;;;;5056297;28;20568;-67
2022/05/03 00:44:55;;;;;;;7.73;5.43;;;;;;;;;;5056014;28;20186;-67
2022/05/03 00:47:24;;;;;;;5.20;4.53;;;;;;;;;;5056593;28;20178;-64
2022/05/03 00:50:00;;;;;;;7.93;5.10;;;;;;;;;;5055993;28;20243;-65
2022/05/03 00:52:29;;;;;;;6.50;5.30;;;;;;;;;;5055664;28;20277;-65
2022/05/03 00:54:58;;;;;;;7.00;5.23;;;;;;;;;;5055844;28;20183;-65
2022/05/03 00:57:32;;;;;;;6.47;5.03;;;;;;;;;;5055620;28;20587;-65
2022/05/03 01:00:01;;;;;;;8.07;5.40;;;;;;;;;;5037697;28;20185;-65
2022/05/03 01:02:29;;;;;;;9.97;5.53;;;;;;;;;;5055659;28;20198;-65
2022/05/03 01:05:10;;;;;;;9.07;6.40;;;;;;;;;;5037558;28;20631;-65
2022/05/03 01:07:36;;;;;;;8.87;5.67;;;;;;;;;;5055232;28;20592;-65
2022/05/03 01:10:04;;;;;;;7.03;5.40;;;;;;;;;;5054358;28;20224;-65
2022/05/03 01:12:39;;;;;;;7.37;5.80;;;;;;;;;;5055135;28;20194;-65
2022/05/03 01:15:25;;;;;;;7.20;5.30;;;;;;;;;;5055562;28;20176;-65
2022/05/03 01:18:06;;;;;;;6.40;5.63;;;;;;;;;;5055128;28;20614;-65
2022/05/03 01:20:35;;;;;;;8.27;5.57;;;;;;;;;;5037596;28;20189;-66
2022/05/03 01:23:16;;;;;;;9.30;5.70;;;;;;;;;;5037475;28;20197;-66
2022/05/03 01:25:45;;;;;;;8.53;5.90;;;;;;;;;;5055636;28;20171;-67
2022/05/03 01:28:30;;;;;;;9.57;5.70;;;;;;;;;;5055088;28;20223;-65
2022/05/03 01:31:04;;;;;;;6.97;5.40;;;;;;;;;;5055297;28;20174;-64
2022/05/03 01:33:34;;;;;;;8.40;5.63;;;;;;;;;;5037262;28;20187;-67
2022/05/03 01:36:00;;;;;;;9.50;6.23;;;;;;;;;;5037151;28;20183;-65
2022/05/03 01:38:48;;;;;;;8.07;5.50;;;;;;;;;;5037313;28;20185;-65
2022/05/03 01:41:24;;;;;;;8.10;6.00;;;;;;;;;;5055070;28;20245;-67
2022/05/03 01:44:01;;;;;;;6.30;5.40;;;;;;;;;;5037105;28;20174;-67
2022/05/03 01:46:37;;;;;;;6.67;5.30;;;;;;;;;;5054877;28;20209;-65
2022/05/03 01:51:57;;;;;;;10.57;5.73;;;;;;;;;;5054779;28;20205;-65
2022/05/03 01:54:24;;;;;;;7.37;5.83;;;;;;;;;;5054501;28;20171;-66
2022/05/03 01:56:58;;;;;;;6.97;6.27;;;;;;;;;;5036545;28;20269;-67
2022/05/03 01:59:36;;;;;;;7.40;5.97;;;;;;;;;;5054750;28;20163;-66
2022/05/03 02:02:10;;;;;;;6.87;5.60;;;;;;;;;;5054436;28;20240;-65
2022/05/03 02:04:45;;;;;;;8.47;6.20;;;;;;;;;;5036475;28;20173;-67
2022/05/03 02:07:20;;;;;;;7.40;5.97;;;;;;;;;;5054302;28;20197;-67
2022/05/03 02:09:53;;;;;;;7.63;5.60;;;;;;;;;;5054773;28;20655;-67
2022/05/03 02:12:20;;;;;;;7.73;5.43;;;;;;;;;;5036064;28;20658;-67
2022/05/03 02:14:53;;;;;;;13.17;6.23;;;;;;;;;;5054411;28;20171;-66
2022/05/03 02:17:36;;;;;;;6.53;5.80;;;;;;;;;;5054326;28;20174;-66
2022/05/03 02:20:14;;;;;;;10.17;5.87;;;;;;;;;;5053929;28;20162;-67
2022/05/03 02:22:59;;;;;;;7.77;5.73;;;;;;;;;;5053840;28;20210;-65
2022/05/03 02:25:41;;;;;;;6.87;5.97;;;;;;;;;;5053885;28;20186;-66
2022/05/03 02:28:24;;;;;;;12.00;7.13;;;;;;;;;;5036561;28;20197;-67
2022/05/03 02:30:51;;;;;;;7.80;6.00;;;;;;;;;;5053835;28;20274;-65
2022/05/03 02:33:27;;;;;;;7.33;5.20;;;;;;;;;;5053543;28;20206;-66
2022/05/03 02:35:57;;;;;;;7.03;5.63;;;;;;;;;;5053733;28;20184;-67
2022/05/03 02:38:50;;;;;;;8.97;5.90;;;;;;;;;;5035904;28;20296;-67
2022/05/03 02:41:16;;;;;;;6.80;6.03;;;;;;;;;;5050704;28;20221;-67
2022/05/03 02:43:43;;;;;;;6.60;5.60;;;;;;;;;;5053623;28;20182;-67
2022/05/03 02:46:20;;;;;;;8.73;6.43;;;;;;;;;;5053751;28;20638;-66
2022/05/03 02:49:13;;;;;;;7.10;5.83;;;;;;;;;;5053545;28;20194;-67
2022/05/03 02:51:41;;;;;;;7.77;6.17;;;;;;;;;;5032953;28;20213;-67
2022/05/03 02:54:16;;;;;;;7.13;6.20;;;;;;;;;;5054018;28;20254;-66
2022/05/03 02:56:49;;;;;;;8.27;6.10;;;;;;;;;;5053502;28;20250;-67
2022/05/03 02:59:15;;;;;;;7.53;5.70;;;;;;;;;;5053619;28;20178;-66
2022/05/03 03:01:54;;;;;;;7.13;5.27;;;;;;;;;;5053164;28;20545;-66
2022/05/03 03:04:36;;;;;;;7.27;6.17;;;;;;;;;;5053373;28;20159;-68
2022/05/03 03:07:03;;;;;;;8.07;5.50;;;;;;;;;;5053317;28;20171;-67
2022/05/03 03:09:41;;;;;;;7.07;5.73;;;;;;;;;;5053133;28;20674;-68
2022/05/03 03:12:20;;;;;;;7.30;5.30;;;;;;;;;;5053134;28;20285;-67
2022/05/03 03:14:47;;;;;;;6.47;5.70;;;;;;;;;;5053099;28;20189;-66
2022/05/03 03:17:18;;;;;;;6.70;5.27;;;;;;;;;;5053390;28;20174;-67
2022/05/03 03:19:59;;;;;;;7.30;5.60;;;;;;;;;;5035358;28;20174;-68
2022/05/03 03:22:29;;;;;;;6.33;5.23;;;;;;;;;;5035536;28;20210;-67
2022/05/03 03:24:57;;;;;;;5.80;4.83;;;;;;;;;;5053366;28;20198;-67
2022/05/03 03:27:23;;;;;;;6.60;4.97;;;;;;;;;;5052964;28;20186;-67
2022/05/03 03:29:52;;;;;;;5.77;4.87;;;;;;;;;;5052959;28;20272;-67
2022/05/03 03:32:18;;;;;;;6.50;4.77;;;;;;;;;;5054801;28;20244;-66
2022/05/03 03:34:48;;;;;;;4.93;4.33;;;;;;;;;;5039277;28;20185;-67
2022/05/03 03:37:14;;;;;;;7.07;4.40;;;;;;;;;;5039171;28;20603;-68
2022/05/03 03:39:40;;;;;;;5.30;4.53;;;;;;;;;;5057504;28;20257;-67
2022/05/03 03:42:07;;;;;;;5.30;4.03;;;;;;;;;;5056897;28;20194;-67
2022/05/03 03:44:33;;;;;;;4.63;4.17;;;;;;;;;;5057222;28;20258;-67
2022/05/03 03:47:00;;;;;;;5.70;4.40;;;;;;;;;;5057251;28;20178;-66
2022/05/03 03:49:27;;;;;;;5.27;3.83;;;;;;;;;;5056797;28;20194;-67
2022/05/03 03:51:53;;;;;;;5.57;4.60;;;;;;;;;;5056723;28;20209;-67
2022/05/03 03:54:19;;;;;;;8.40;4.57;;;;;;;;;;5056667;28;20178;-65
2022/05/03 03:56:46;;;;;;;5.23;4.37;;;;;;;;;;5038792;28;20269;-68
2022/05/03 03:59:14;;;;;;;5.70;4.17;;;;;;;;;;5056916;28;20678;-67
2022/05/03 04:01:41;;;;;;;5.10;4.50;;;;;;;;;;5039426;28;20301;-66
2022/05/03 04:04:08;;;;;;;5.97;4.50;;;;;;;;;;5056583;28;20233;-67
2022/05/03 04:06:35;;;;;;;5.43;4.67;;;;;;;;;;5038600;28;20244;-67
2022/05/03 04:09:01;;;;;;;5.57;4.17;;;;;;;;;;5056419;28;20205;-67
2022/05/03 04:11:27;;;;;;;7.37;4.20;;;;;;;;;;5056495;28;20202;-67
2022/05/03 04:13:53;;;;;;;5.53;4.30;;;;;;;;;;5056618;28;20175;-67
2022/05/03 04:16:19;;;;;;;5.33;4.40;;;;;;;;;;5038883;28;20613;-67
2022/05/03 04:18:45;;;;;;;7.30;4.20;;;;;;;;;;5038394;28;20225;-65
2022/05/03 04:21:15;;;;;;;5.77;4.40;;;;;;;;;;5038318;28;20186;-67
2022/05/03 04:23:41;;;;;;;7.60;4.93;;;;;;;;;;5056283;28;20190;-66
2022/05/03 04:26:09;;;;;;;5.17;4.30;;;;;;;;;;5056412;28;20182;-68
2022/05/03 04:28:35;;;;;;;4.87;4.37;;;;;;;;;;5038397;28;20615;-67
2022/05/03 04:31:01;;;;;;;5.27;4.20;;;;;;;;;;5038144;28;20768;-64
2022/05/03 04:33:27;;;;;;;4.93;3.80;;;;;;;;;;5055910;28;20230;-67
2022/05/03 04:35:52;;;;;;;5.83;4.23;;;;;;;;;;5056018;28;20179;-67
2022/05/03 04:38:18;;;;;;;6.97;4.37;;;;;;;;;;5055937;28;20224;-66
2022/05/03 04:40:44;;;;;;;4.83;4.00;;;;;;;;;;5038030;28;20190;-67
2022/05/03 04:43:11;;;;;;;6.47;4.50;;;;;;;;;;5054715;28;20197;-67
2022/05/03 04:45:37;;;;;;;4.60;4.10;;;;;;;;;;5055702;28;20179;-67
2022/05/03 04:48:03;;;;;;;4.13;3.73;;;;;;;;;;5055752;28;20244;-66
2022/05/03 04:50:29;;;;;;;5.93;4.30;;;;;;;;;;5055723;28;20213;-68
2022/05/03 04:52:56;;;;;;;6.17;4.73;;;;;;;;;;5055530;28;20283;-66
2022/05/03 04:55:23;;;;;;;4.63;3.80;;;;;;;;;;5055650;28;20178;-66
2022/05/03 04:57:49;;;;;;;5.43;4.50;;;;;;;;;;5055560;28;20701;-67
2022/05/03 05:00:15;;;;;;;5.00;4.10;;;;;;;;;;5055485;28;20214;-67
2022/05/03 05:02:41;;;;;;;6.40;4.67;;;;;;;;;;5055451;28;20205;-67
2022/05/03 05:05:08;;;;;;;5.10;4.53;;;;;;;;;;5037594;28;20269;-67
2022/05/03 05:07:34;;;;;;;7.23;4.60;;;;;;;;;;5055399;28;20655;-67
2022/05/03 05:12:44;;;;;;;5.43;4.63;;;;;;;;;;5055550;28;20336;-67
2022/05/03 05:15:10;;;;;;;9.97;4.97;;;;;;;;;;5037394;28;20680;-67
2022/05/03 05:17:36;;;;;;;9.00;5.00;;;;;;;;;;5037391;28;20619;-67
2022/05/03 05:20:02;;;;;;;6.63;5.00;;;;;;;;;;5055331;28;20666;-66
2022/05/03 05:22:28;;;;;;;7.63;4.90;;;;;;;;;;5055180;28;20631;-67
2022/05/03 05:24:54;;;;;;;6.70;4.70;;;;;;;;;;5055215;28;20186;-67
2022/05/03 05:27:20;;;;;;;7.37;4.90;;;;;;;;;;5055078;28;20261;-68
2022/05/03 05:29:46;;;;;;;6.97;4.80;;;;;;;;;;5037137;28;20701;-65
2022/05/03 05:32:12;;;;;;;7.23;5.27;;;;;;;;;;5055116;28;20714;-66
2022/05/03 05:34:38;;;;;;;6.73;4.40;;;;;;;;;;5054987;28;20348;-66
2022/05/03 05:37:04;;;;;;;6.37;4.80;;;;;;;;;;5055025;28;20174;-65
2022/05/03 05:39:31;;;;;;;7.77;4.77;;;;;;;;;;5036875;28;20274;-65
2022/05/03 05:41:58;;;;;;;6.23;3.90;;;;;;;;;;5071941;22;20192;-65
2022/05/03 05:44:24;;;;;;;5.30;4.20;;;;;;;;;;5055136;28;20208;-65
2022/05/03 05:46:52;;;;;;;4.33;3.77;;;;;;;;;;5054777;28;20170;-66
2022/05/03 05:49:18;;;;;;;5.17;4.07;;;;;;;;;;5054761;28;20259;-65
2022/05/03 05:51:45;;;;;;;6.53;4.70;;;;;;;;;;5054509;28;20199;-66
2022/05/03 05:54:11;;;;;;;9.10;4.30;;;;;;;;;;5036398;28;20171;-66
2022/05/03 05:56:37;;;;;;;8.50;4.97;;;;;;;;;;5036547;28;20315;-66
2022/05/03 05:59:03;;;;;;;5.57;4.20;;;;;;;;;;5036682;28;20206;-66
2022/05/03 06:01:38;;;;;;;4.97;4.10;;;;;;;;;;5036861;28;20594;-66
2022/05/03 06:04:05;;;;;;;6.07;4.77;;;;;;;;;;5036487;28;20178;-66
2022/05/03 06:06:35;;;;;;;5.73;4.53;;;;;;;;;;5054533;28;20188;-68
2022/05/03 06:09:01;;;;;;;7.67;4.90;;;;;;;;;;5036450;28;20198;-67
2022/05/03 06:11:29;;;;;;;7.60;5.30;;;;;;;;;;5054618;28;20181;-67
2022/05/03 06:13:54;;;;;;;8.20;5.00;;;;;;;;;;5054300;28;20202;-67
2022/05/03 06:16:21;;;;;;;6.33;4.53;;;;;;;;;;5054527;28;20179;-67
2022/05/03 06:18:47;;;;;;;6.70;4.87;;;;;;;;;;5036383;28;20238;-67
2022/05/03 06:21:13;;;;;;;8.67;4.83;;;;;;;;;;5054218;28;20184;-67
2022/05/03 06:23:39;;;;;;;5.80;4.17;;;;;;;;;;5054089;28;20670;-67
2022/05/03 06:26:05;;;;;;;4.80;4.03;;;;;;;;;;5053864;28;20183;-67
2022/05/03 06:28:34;;;;;;;4.70;3.70;;;;;;;;;;5054036;28;20598;-68
2022/05/03 06:31:00;;;;;;;9.43;4.33;;;;;;;;;;5054002;28;20170;-67
2022/05/03 06:33:26;;;;;;;4.93;4.10;;;;;;;;;;5053939;28;20573;-67
2022/05/03 06:35:52;;;;;;;8.73;4.57;;;;;;;;;;5036138;28;20662;-67
2022/05/03 06:38:18;;;;;;;4.47;3.80;;;;;;;;;;5036054;28;20269;-67
2022/05/03 06:40:44;;;;;;;4.17;3.80;;;;;;;;;;5054098;28;20642;-67
2022/05/03 06:43:10;;;;;;;5.40;4.20;;;;;;;;;;5035872;28;20694;-69
2022/05/03 06:45:36;;;;;;;4.63;4.13;;;;;;;;;;5035841;28;20197;-67
2022/05/03 06:48:06;;;;;;;5.53;3.70;;;;;;;;;;5036229;28;20186;-67
2022/05/03 06:50:32;;;;;;;5.63;3.20;;;;;;;;;;5035904;28;20700;-67
2022/05/03 06:52:58;;;;;;;4.23;3.37;;;;;;;;;;5053724;28;20281;-67
2022/05/03 06:55:24;;;;;;;6.93;3.87;;;;;;;;;;5053768;28;20232;-68
2022/05/03 06:57:50;;;;;;;7.40;3.73;;;;;;;;;;5035784;28;20182;-67
2022/05/03 07:00:16;;;;;;;5.83;2.93;;;;;;;;;;5053652;28;20230;-67
2022/05/03 07:02:42;;;;;;;4.63;2.77;;;;;;;;;;5053610;28;20213;-67
2022/05/03 07:05:08;;;;;;;4.00;2.47;;;;;;;;;;5053846;28;20185;-67
2022/05/03 07:07:35;;;;;;;5.20;2.90;;;;;;;;;;5034558;28;20225;-67
2022/05/03 07:10:01;;;;;;;4.17;2.20;;;;;;;;;;5035328;28;20583;-67
2022/05/03 07:12:27;;;;;;;2.73;2.47;;;;;;;;;;5053211;28;20222;-67
2022/05/03 07:14:58;;;;;;;2.87;2.10;;;;;;;;;;5053470;28;20193;-68
2022/05/03 07:22:53;;;;;;;2.30;1.90;;;;;;;;;;5053214;28;20225;-67
2022/05/03 07:25:19;;;;;;;3.10;1.83;;;;;;;;;;5053161;28;20178;-67
2022/05/03 07:27:46;;;;;;;4.50;2.03;;;;;;;;;;5053034;28;20174;-67
2022/05/03 07:30:13;;;;;;;2.23;1.90;;;;;;;;;;5035222;28;20674;-67
2022/05/03 07:32:39;;;;;;;2.63;1.97;;;;;;;;;;5035168;28;20198;-67
2022/05/03 07:35:05;;;;;;;4.80;2.10;;;;;;;;;;5053491;28;20265;-67
2022/05/03 07:37:31;;;;;;;1.83;1.73;;;;;;;;;;5035231;28;20303;-67
2022/05/03 07:39:57;;;;;;;2.20;1.70;;;;;;;;;;5053212;28;20319;-67
2022/05/03 07:42:23;;;;;;;1.60;1.50;;;;;;;;;;5053161;28;20300;-67
2022/05/03 07:44:49;;;;;;;1.57;1.30;;;;;;;;;;5053319;28;20246;-67
2022/05/03 07:47:15;;;;;;;1.63;1.53;;;;;;;;;;5053228;28;20214;-67
2022/05/03 07:49:41;;;;;;;1.50;1.40;;;;;;;;;;5052847;28;20201;-67
2022/05/03 07:52:07;;;;;;;2.47;1.90;;;;;;;;;;5034885;28;20198;-67
2022/05/03 07:54:34;;;;;;;1.60;1.50;;;;;;;;;;5053327;28;20185;-67
2022/05/03 07:57:00;;;;;;;1.77;1.57;;;;;;;;;;5053208;28;20209;-67
2022/05/03 07:59:26;;;;;;;2.63;1.60;;;;;;;;;;5052885;28;20667;-67
2022/05/03 08:01:54;;;;;;;2.10;1.80;;;;;;;;;;5034948;28;20654;-67
2022/05/03 08:04:20;;;;;;;1.73;1.63;;;;;;;;;;5052838;28;20579;-67
2022/05/03 08:06:46;;;;;;;2.90;1.73;;;;;;;;;;5034909;28;20193;-67
2022/05/03 08:09:12;;;;;;;2.03;1.50;;;;;;;;;;5052695;28;20298;-67
2022/05/03 08:11:38;;;;;;;2.30;1.73;;;;;;;;;;5052557;28;20632;-66
2022/05/03 08:14:04;;;;;;;2.80;1.80;;;;;;;;;;5035104;28;20563;-67
2022/05/03 08:16:31;;;;;;;3.93;1.70;;;;;;;;;;5053268;28;20171;-67
2022/05/03 08:18:57;;;;;;;1.83;1.70;;;;;;;;;;5055295;28;20213;-68
2022/05/03 08:21:24;;;;;;;2.70;2.20;;;;;;;;;;5056384;28;20186;-67
2022/05/03 08:23:50;;;;;;;1.97;1.77;;;;;;;;;;5056451;28;20201;-67
2022/05/03 08:26:16;;;;;;;1.70;1.60;;;;;;;;;;5056658;28;20181;-67
2022/05/03 08:28:42;;;;;;;3.30;2.00;;;;;;;;;;5039293;28;20240;-67
2022/05/03 08:31:09;;;;;;;3.57;2.17;;;;;;;;;;5063360;28;20178;-68
2022/05/03 08:33:35;;;;;;;2.30;1.90;;;;;;;;;;5056940;28;20689;-67
2022/05/03 08:36:01;;;;;;;2.40;1.83;;;;;;;;;;5056314;28;20178;-67
2022/05/03 08:43:58;;;;;;;3.67;2.23;;;;;;;;;;5056007;28;20284;-67
2022/05/03 08:46:24;;;;;;;3.27;2.20;;;;;;;;;;5038319;28;20178;-67
2022/05/03 08:48:53;;;;;;;3.30;2.67;;;;;;;;;;5038274;28;20209;-67
2022/05/03 08:51:21;;;;;;;3.03;2.20;;;;;;;;;;5056271;28;20225;-67
2022/05/03 08:53:47;;;;;;;2.90;2.60;;;;;;;;;;5056038;28;20279;-67
2022/05/03 08:56:13;;;;;;;3.73;2.50;;;;;;;;;;5039776;28;20182;-67
2022/05/03 08:58:39;;;;;;;3.70;2.00;;;;;;;;;;5058096;28;20216;-67
2022/05/03 09:01:05;;;;;;;2.70;2.03;;;;;;;;;;5042839;28;20254;-67
2022/05/03 09:03:31;;;;;;;4.53;2.37;;;;;;;;;;5061134;28;20205;-67
2022/05/03 09:05:57;;;;;;;2.90;2.20;;;;;;;;;;5061846;28;20265;-67
2022/05/03 09:08:23;;;;;;;4.77;2.40;;;;;;;;;;5059096;28;20174;-67
2022/05/03 09:10:49;;;;;;;3.90;2.40;;;;;;;;;;5055878;28;20285;-67
2022/05/03 09:13:22;;;;;;;2.50;2.10;;;;;;;;;;5055397;28;20222;-67
2022/05/03 09:15:50;;;;;;;4.80;2.43;;;;;;;;;;5037523;28;20209;-67
2022/05/03 09:18:24;;;;;;;4.23;2.87;;;;;;;;;;5055718;28;20208;-67
2022/05/03 09:23:50;;;;;;;4.73;2.40;;;;;;;;;;5055660;28;20209;-67
2022/05/03 09:26:20;;;;;;;2.73;2.43;;;;;;;;;;5055549;28;20536;-67
2022/05/03 09:29:05;;;;;;;4.17;2.80;;;;;;;;;;5037087;28;20189;-66
2022/05/03 09:31:31;;;;;;;3.57;2.50;;;;;;;;;;5055038;28;20178;-66
2022/05/03 09:33:59;;;;;;;4.73;2.40;;;;;;;;;;5055194;28;20200;-67
2022/05/03 09:36:26;;;;;;;2.47;1.97;;;;;;;;;;5055220;28;20187;-67
2022/05/03 09:38:54;;;;;;;2.53;2.33;;;;;;;;;;5054894;28;20174;-67
2022/05/03 09:41:21;;;;;;;2.57;2.37;;;;;;;;;;5055333;28;20182;-67
2022/05/03 09:44:06;;;;;;;5.00;2.90;;;;;;;;;;5036823;28;20225;-67
2022/05/03 09:46:52;;;;;;;4.27;3.07;;;;;;;;;;5054671;28;20685;-68
2022/05/03 09:49:22;;;;;;;3.97;2.67;;;;;;;;;;5036853;28;20214;-67
2022/05/03 09:51:49;;;;;;;2.90;2.30;;;;;;;;;;5036720;28;20178;-67
2022/05/03 09:54:16;;;;;;;3.37;2.53;;;;;;;;;;5036694;28;20179;-67
2022/05/03 09:56:47;;;;;;;2.40;2.20;;;;;;;;;;5054641;28;20217;-67
2022/05/03 09:59:14;;;;;;;2.30;2.10;;;;;;;;;;5054848;28;20228;-67
2022/05/03 10:01:41;;;;;;;2.23;2.03;;;;;;;;;;5036502;28;20181;-67
2022/05/03 10:04:07;;;;;;;2.30;2.10;;;;;;;;;;5054466;28;20178;-67
2022/05/03 10:06:34;;;;;;;2.13;2.03;;;;;;;;;;5054291;28;20185;-67
2022/05/03 10:09:00;;;;;;;2.80;1.97;;;;;;;;;;5054284;28;20198;-66
2022/05/03 10:11:27;;;;;;;3.37;2.27;;;;;;;;;;5054445;28;20179;-67
2022/05/03 10:13:54;;;;;;;3.23;2.33;;;;;;;;;;5054739;28;20219;-66
2022/05/03 10:21:55;;;;;;;4.27;2.33;;;;;;;;;;5054436;28;20201;-66
2022/05/03 10:24:22;;;;;;;3.03;2.50;;;;;;;;;;5054350;28;20166;-67
2022/05/03 10:27:01;;;;;;;6.70;2.67;;;;;;;;;;5053919;28;20181;-67
2022/05/03 10:29:28;;;;;;;2.17;1.97;;;;;;;;;;5036386;28;20275;-66
2022/05/03 10:32:01;;;;;;;2.37;2.17;;;;;;;;;;5054106;28;20174;-67
2022/05/03 10:34:47;;;;;;;2.27;2.07;;;;;;;;;;5053940;28;20258;-67
2022/05/03 10:37:14;;;;;;;1.97;1.87;;;;;;;;;;5036550;28;20363;-67
2022/05/03 10:39:45;;;;;;;2.40;2.20;;;;;;;;;;5036016;28;20331;-67
2022/05/03 10:42:12;;;;;;;2.33;2.07;;;;;;;;;;5053547;28;20205;-67
2022/05/03 10:44:45;;;;;;;3.30;2.27;;;;;;;;;;5054078;28;20170;-67
2022/05/03 10:47:12;;;;;;;2.40;2.20;;;;;;;;;;5035823;28;20536;-67
2022/05/03 10:49:57;;;;;;;2.33;2.13;;;;;;;;;;5053432;28;20198;-67
2022/05/03 10:52:23;;;;;;;3.13;2.30;;;;;;;;;;5035484;28;20194;-67
2022/05/03 10:55:08;;;;;;;3.37;2.50;;;;;;;;;;5053557;28;20183;-67
2022/05/03 10:57:54;;;;;;;3.47;2.63;;;;;;;;;;5053983;28;20179;-67
2022/05/03 11:00:38;;;;;;;7.80;2.50;;;;;;;;;;5035499;28;20181;-67
2022/05/03 11:03:20;;;;;;;2.07;1.87;;;;;;;;;;5035630;28;20206;-67
2022/05/03 11:06:06;;;;;;;3.43;2.27;;;;;;;;;;5035638;28;20672;-67
2022/05/03 11:08:32;;;;;;;2.30;2.00;;;;;;;;;;5053416;28;20182;-67
2022/05/03 11:10:58;;;;;;;2.30;2.10;;;;;;;;;;5035402;28;20174;-67
2022/05/03 11:13:38;;;;;;;3.07;2.40;;;;;;;;;;5035516;28;20264;-67
2022/05/03 11:16:20;;;;;;;4.20;2.47;;;;;;;;;;5053600;28;20253;-67
2022/05/03 11:18:46;;;;;;;3.10;2.53;;;;;;;;;;5053296;28;20211;-66
2022/05/03 11:21:15;;;;;;;2.33;2.13;;;;;;;;;;5053233;28;20236;-67
2022/05/03 11:23:48;;;;;;;2.03;1.90;;;;;;;;;;5053066;28;20190;-67
2022/05/03 11:26:15;;;;;;;2.50;1.93;;;;;;;;;;5053296;28;20179;-67
2022/05/03 11:28:41;;;;;;;2.20;2.00;;;;;;;;;;5053160;28;20178;-66
2022/05/03 11:31:07;;;;;;;3.50;2.23;;;;;;;;;;5035364;28;20181;-67
2022/05/03 11:33:48;;;;;;;2.80;2.50;;;;;;;;;;5053155;28;20198;-66
2022/05/03 11:36:14;;;;;;;3.20;2.67;;;;;;;;;;5035322;28;20257;-67
2022/05/03 11:38:40;;;;;;;2.00;1.90;;;;;;;;;;5053132;28;20205;-66
2022/05/03 11:41:07;;;;;;;2.43;2.23;;;;;;;;;;5053420;28;20170;-68
2022/05/03 11:43:33;;;;;;;3.03;2.30;;;;;;;;;;5052964;28;20217;-67
2022/05/03 11:45:59;;;;;;;2.70;2.50;;;;;;;;;;5053264;28;20187;-67
2022/05/03 11:48:25;;;;;;;3.10;2.50;;;;;;;;;;5053041;28;20191;-67
2022/05/03 11:56:24;;;;;;;3.60;2.03;;;;;;;;;;5057236;28;20177;-66
2022/05/03 11:58:50;;;;;;;3.33;2.40;;;;;;;;;;5038967;28;20185;-66
2022/05/03 12:01:16;;;;;;;2.43;2.23;;;;;;;;;;5038903;28;20186;-67
2022/05/03 12:03:49;;;;;;;2.70;2.50;;;;;;;;;;5056910;28;20665;-66
2022/05/03 12:06:16;;;;;;;2.73;2.53;;;;;;;;;;5039014;28;20182;-67
2022/05/03 12:08:42;;;;;;;3.10;2.80;;;;;;;;;;5038738;28;20205;-66
2022/05/03 12:11:21;;;;;;;2.57;2.37;;;;;;;;;;5056848;28;20635;-67
2022/05/03 12:13:47;;;;;;;3.40;2.40;;;;;;;;;;5038780;28;20206;-67
2022/05/03 12:16:16;;;;;;;2.50;2.30;;;;;;;;;;5056581;28;20171;-67
2022/05/03 12:18:48;;;;;;;2.93;2.63;;;;;;;;;;5038524;28;20201;-66
2022/05/03 12:21:15;;;;;;;2.43;2.23;;;;;;;;;;5056575;28;20167;-67
2022/05/03 12:23:42;;;;;;;3.17;2.10;;;;;;;;;;5038541;28;20202;-66
2022/05/03 12:26:17;;;;;;;2.40;2.20;;;;;;;;;;5056587;28;20185;-67
2022/05/03 12:28:45;;;;;;;5.13;2.10;;;;;;;;;;5056673;28;20338;-66
2022/05/03 12:31:12;;;;;;;4.10;2.60;;;;;;;;;;5057023;28;20170;-67
2022/05/03 12:33:42;;;;;;;5.57;2.50;;;;;;;;;;5038977;28;20194;-66
2022/05/03 12:36:09;;;;;;;2.70;2.50;;;;;;;;;;5056402;28;20660;-67
2022/05/03 12:38:46;;;;;;;5.13;2.90;;;;;;;;;;5056844;28;20182;-67
2022/05/03 12:41:21;;;;;;;3.00;2.57;;;;;;;;;;5057436;28;20158;-67
2022/05/03 12:43:58;;;;;;;3.00;2.10;;;;;;;;;;5056939;28;20626;-67
2022/05/03 12:46:31;;;;;;;2.50;2.30;;;;;;;;;;5056248;28;20197;-67
2022/05/03 12:48:57;;;;;;;2.23;1.87;;;;;;;;;;5037999;28;20182;-66
2022/05/03 12:51:25;;;;;;;4.83;2.60;;;;;;;;;;5056854;28;20535;-67
2022/05/03 12:53:52;;;;;;;2.83;2.60;;;;;;;;;;5056036;28;20207;-67
2022/05/03 12:59:04;;;;;;;4.07;2.40;;;;;;;;;;5056188;28;20173;-66
2022/05/03 13:01:30;;;;;;;3.70;2.30;;;;;;;;;;5037922;28;20179;-67
2022/05/03 13:03:56;;;;;;;2.30;2.10;;;;;;;;;;5054925;28;20199;-69
2022/05/03 13:06:22;;;;;;;3.07;2.30;;;;;;;;;;5037569;28;20213;-67
2022/05/03 13:08:50;;;;;;;2.87;2.50;;;;;;;;;;5055760;28;20265;-66
2022/05/03 13:11:16;;;;;;;3.87;2.40;;;;;;;;;;5037698;28;20532;-67
2022/05/03 13:13:42;;;;;;;3.30;2.90;;;;;;;;;;5037649;28;20252;-68
2022/05/03 13:16:08;;;;;;;2.50;2.20;;;;;;;;;;5055580;28;20202;-65
2022/05/03 13:18:34;;;;;;;2.77;2.50;;;;;;;;;;5037676;28;20298;-65
2022/05/03 13:21:01;;;;;;;5.07;2.40;;;;;;;;;;5055592;28;20178;-65
2022/05/03 13:23:27;;;;;;;2.47;2.13;;;;;;;;;;5037515;28;20693;-68
2022/05/03 13:25:54;;;;;;;2.57;2.37;;;;;;;;;;5056285;28;20181;-66
2022/05/03 13:28:20;;;;;;;2.60;2.40;;;;;;;;;;5055382;28;20178;-66
2022/05/03 13:30:46;;;;;;;2.57;2.37;;;;;;;;;;5055252;28;20732;-67
2022/05/03 13:33:13;;;;;;;3.07;2.77;;;;;;;;;;5037079;28;20289;-67
2022/05/03 13:41:22;;;;;;;7.67;2.80;;;;;;;;;;5054926;28;20285;-67
2022/05/03 13:43:48;;;;;;;3.53;2.90;;;;;;;;;;5054853;28;20181;-65
2022/05/03 13:46:14;;;;;;;3.30;3.00;;;;;;;;;;5054693;28;20290;-66
2022/05/03 13:48:40;;;;;;;3.23;2.93;;;;;;;;;;5054624;28;20185;-65
2022/05/03 13:51:06;;;;;;;3.00;2.67;;;;;;;;;;5037017;28;20182;-65
2022/05/03 13:53:32;;;;;;;3.10;2.80;;;;;;;;;;5036815;28;20179;-66
2022/05/03 13:55:58;;;;;;;3.37;3.07;;;;;;;;;;5054529;28;20202;-66
2022/05/03 13:58:24;;;;;;;3.20;2.90;;;;;;;;;;5054740;28;20179;-65
2022/05/03 14:00:50;;;;;;;3.20;2.90;;;;;;;;;;5054639;28;20652;-66
2022/05/03 14:03:16;;;;;;;2.80;2.60;;;;;;;;;;5036536;28;20179;-67
2022/05/03 14:05:43;;;;;;;3.10;2.80;;;;;;;;;;5054818;28;20198;-65
2022/05/03 14:08:13;;;;;;;3.03;2.83;;;;;;;;;;5054827;28;20647;-66
2022/05/03 14:10:40;;;;;;;3.20;2.73;;;;;;;;;;5036628;28;20316;-66
2022/05/03 14:13:06;;;;;;;3.20;2.90;;;;;;;;;;5054272;28;20191;-66
2022/05/03 14:15:32;;;;;;;3.60;3.30;;;;;;;;;;5053806;28;20252;-66
2022/05/03 14:17:58;;;;;;;3.30;3.00;;;;;;;;;;5054148;28;20202;-66
2022/05/03 14:20:25;;;;;;;3.60;3.30;;;;;;;;;;5054545;28;20152;-65
2022/05/03 14:22:51;;;;;;;4.27;3.53;;;;;;;;;;5036114;28;20232;-65
2022/05/03 14:25:17;;;;;;;4.37;3.10;;;;;;;;;;5054132;28;20190;-66
2022/05/03 14:27:43;;;;;;;3.60;3.30;;;;;;;;;;5054120;28;20226;-65
2022/05/03 14:30:10;;;;;;;3.93;3.53;;;;;;;;;;5034728;28;20972;-65
2022/05/03 14:32:37;;;;;;;3.43;3.13;;;;;;;;;;5054151;28;20182;-65
2022/05/03 14:35:03;;;;;;;3.67;2.93;;;;;;;;;;5054107;28;20181;-65
2022/05/03 14:37:29;;;;;;;3.63;3.27;;;;;;;;;;5054094;28;20195;-66
2022/05/03 14:39:55;;;;;;;3.40;3.10;;;;;;;;;;5035969;28;20182;-66
2022/05/03 14:42:21;;;;;;;4.20;3.23;;;;;;;;;;5036026;28;20220;-66
2022/05/03 14:44:47;;;;;;;3.53;3.23;;;;;;;;;;5054071;28;20283;-65
2022/05/03 14:47:13;;;;;;;3.90;3.50;;;;;;;;;;5053581;28;20201;-66
2022/05/03 14:49:41;;;;;;;3.53;3.23;;;;;;;;;;5053655;28;20206;-66
2022/05/03 14:52:09;;;;;;;3.83;3.20;;;;;;;;;;5053956;28;20548;-66
2022/05/03 14:54:36;;;;;;;3.77;3.17;;;;;;;;;;5035932;28;20622;-65
2022/05/03 15:05:20;;;;;;;4.17;2.70;;;;;;;;;;5053654;28;20217;-65
2022/05/03 15:07:46;;;;;;;3.80;3.17;;;;;;;;;;5054016;28;20170;-65
2022/05/03 15:10:12;;;;;;;3.27;2.97;;;;;;;;;;5053429;28;20205;-65
2022/05/03 15:12:38;;;;;;;3.60;2.93;;;;;;;;;;5035493;28;20183;-66
2022/05/03 15:15:04;;;;;;;3.30;3.00;;;;;;;;;;5053138;28;20182;-65
2022/05/03 15:17:30;;;;;;;3.53;2.73;;;;;;;;;;5053322;28;20234;-65
2022/05/03 15:19:56;;;;;;;3.07;2.80;;;;;;;;;;5053213;28;20646;-66
2022/05/03 15:25:24;;;;;;;3.73;2.93;;;;;;;;;;4991890;28;20218;-65
2022/05/03 15:27:50;;;;;;;3.77;2.83;;;;;;;;;;5039679;28;20280;-65
2022/05/03 15:30:16;;;;;;;4.80;2.83;;;;;;;;;;5035246;28;20292;-65
2022/05/03 15:32:42;;;;;;;3.40;3.10;;;;;;;;;;5035191;28;20178;-65
2022/05/03 15:35:09;;;;;;;2.63;2.43;;;;;;;;;;5053217;28;20548;-65
2022/05/03 15:37:35;;;;;;;3.20;2.90;;;;;;;;;;5053038;28;20175;-65
2022/05/03 15:40:05;;;;;;;3.13;2.73;;;;;;;;;;5052971;28;20234;-65
2022/05/03 15:42:32;;;;;;;3.73;2.87;;;;;;;;;;5053237;28;20178;-65